Terminal Aerodrome Forecast
Issued by NWS

Current Version | Previous Version | Text Only | Print | Product List | Glossary On
Versions: 1 2 3 4 5 6 7 8 9 10 11 12 13 14 15 16 17 18 19 20 21 22 23 24 25 26 27 28 29 30 31 32 33 34 35
179 FTUS41 KBOX 201120 TAFHYA TAF KHYA 201120Z 2012/2112 28015G24KT P6SM SCT070 FM201700 27016G30KT P6SM SCT045 FM210200 27012G20KT P6SM SCT250 FM210800 25009KT P6SM FEW250=

USA.gov is the U.S. government's official web portal to all federal, state and local government web resources and services.